Time;durP1;ratioP1;P1;durP2;ratioP2;P2;SDS_P1;SDS_P2;PMS_P1;PMS_P2;Temp;Humidity;BMP_temperature;BMP_pressure;BME280_temperature;BME280_humidity;BME280_pressure;Samples;Min_cycle;Max_cycle;Signal;HPM_P1;HPM_P2
2023/05/10 00:00:30;;;;;;;4.65;0.43;;;;;;;14.12;100.00;100276.41;5119385;27;20039;-65
2023/05/10 00:02:55;;;;;;;0.52;0.20;;;;;;;14.09;100.00;100282.97;5115101;27;20245;-65
2023/05/10 00:05:20;;;;;;;0.10;0.03;;;;;;;14.17;100.00;100287.22;5116041;27;20031;-65
2023/05/10 00:07:46;;;;;;;2.00;0.20;;;;;;;14.19;100.00;100275.31;5097013;27;20113;-65
2023/05/10 00:10:11;;;;;;;0.75;0.10;;;;;;;14.18;100.00;100271.00;5111501;27;20412;-65
2023/05/10 00:12:37;;;;;;;0.25;0.00;;;;;;;14.24;100.00;100279.16;5115281;27;20394;-66
2023/05/10 00:15:03;;;;;;;0.38;0.00;;;;;;;14.23;100.00;100280.22;5115550;27;20031;-65
2023/05/10 00:17:28;;;;;;;0.73;0.60;;;;;;;14.17;100.00;100277.41;5118751;27;20023;-65
2023/05/10 00:19:54;;;;;;;3.00;0.35;;;;;;;14.32;100.00;100282.34;5116907;27;20151;-64
2023/05/10 00:22:19;;;;;;;0.88;0.38;;;;;;;14.36;100.00;100282.75;5118935;27;20031;-65
2023/05/10 00:24:44;;;;;;;1.45;0.22;;;;;;;14.27;100.00;100279.53;5111093;27;20026;-65
2023/05/10 00:27:10;;;;;;;1.98;0.75;;;;;;;14.24;100.00;100289.84;5107516;27;20476;-65
2023/05/10 00:29:35;;;;;;;1.95;0.93;;;;;;;14.15;100.00;100287.47;5124056;27;20029;-65
2023/05/10 00:32:00;;;;;;;0.90;0.40;;;;;;;14.12;100.00;100285.22;5115332;27;20033;-65
2023/05/10 00:34:27;;;;;;;18.48;1.05;;;;;;;14.12;100.00;100284.41;5118848;27;20027;-65
2023/05/10 00:36:52;;;;;;;3.45;0.17;;;;;;;14.21;100.00;100291.09;5121839;27;20034;-65
2023/05/10 00:39:17;;;;;;;0.90;0.30;;;;;;;14.24;100.00;100284.50;5101472;27;20342;-65
2023/05/10 00:41:42;;;;;;;1.30;0.10;;;;;;;14.22;100.00;100286.56;5112487;27;20034;-65
2023/05/10 00:44:08;;;;;;;3.47;1.35;;;;;;;14.19;100.00;100285.16;5110877;27;20034;-65
2023/05/10 00:46:33;;;;;;;1.38;0.30;;;;;;;14.18;100.00;100291.53;5110885;27;20448;-64
2023/05/10 00:48:59;;;;;;;1.65;0.50;;;;;;;14.18;100.00;100292.34;5096260;28;20387;-65
2023/05/10 00:51:24;;;;;;;1.58;0.20;;;;;;;14.10;100.00;100279.31;5121385;27;20034;-65
2023/05/10 00:53:51;;;;;;;0.43;0.20;;;;;;;14.00;100.00;100286.97;5118295;27;20076;-65
2023/05/10 00:56:16;;;;;;;0.17;0.13;;;;;;;13.97;100.00;100292.75;5116554;27;20043;-66
2023/05/10 00:58:42;;;;;;;1.83;1.67;;;;;;;13.91;100.00;100288.25;5109541;27;20031;-66
2023/05/10 01:01:09;;;;;;;1.40;0.85;;;;;;;13.83;100.00;100288.53;5115017;27;20035;-65
2023/05/10 01:03:35;;;;;;;2.60;0.40;;;;;;;13.71;100.00;100291.09;5114972;27;20560;-65
2023/05/10 01:06:01;;;;;;;5.05;1.85;;;;;;;13.72;100.00;100288.22;5113968;27;20046;-65
2023/05/10 01:08:29;;;;;;;4.68;1.02;;;;;;;13.66;100.00;100283.75;5115746;27;20035;-65
2023/05/10 01:10:55;;;;;;;1.10;0.50;;;;;;;13.46;100.00;100293.72;5119247;27;20470;-65
2023/05/10 01:13:42;;;;;;;0.75;0.70;;;;;;;13.42;100.00;100292.50;5113127;27;20062;-65
2023/05/10 01:16:07;;;;;;;0.65;0.50;;;;;;;13.30;100.00;100290.53;5110016;27;20035;-65
2023/05/10 01:18:36;;;;;;;1.30;0.22;;;;;;;13.23;100.00;100294.22;5115339;27;20491;-65
2023/05/10 01:21:30;;;;;;;0.73;0.50;;;;;;;13.20;100.00;100298.13;5113822;27;20051;-65
2023/05/10 01:24:16;;;;;;;0.17;0.10;;;;;;;13.16;100.00;100299.56;5110369;27;20259;-64
2023/05/10 01:27:01;;;;;;;0.65;0.65;;;;;;;13.13;100.00;100296.53;5115882;27;20483;-65
2023/05/10 01:29:55;;;;;;;0.88;0.47;;;;;;;13.10;100.00;100301.25;5109045;27;20070;-64
2023/05/10 01:32:27;;;;;;;0.57;0.20;;;;;;;13.01;100.00;100301.69;5121522;27;20033;-64
2023/05/10 01:35:14;;;;;;;0.50;0.47;;;;;;;12.91;100.00;100307.47;5109222;27;20494;-64
2023/05/10 01:37:45;;;;;;;1.40;0.50;;;;;;;12.82;100.00;100306.88;5122189;27;20036;-65
2023/05/10 01:40:10;;;;;;;1.38;0.43;;;;;;;12.87;100.00;100309.72;5119051;27;20035;-65
2023/05/10 01:42:50;;;;;;;3.10;0.82;;;;;;;12.83;100.00;100315.66;5113443;27;20113;-65
2023/05/10 01:45:41;;;;;;;2.00;0.20;;;;;;;12.71;100.00;100309.38;5116939;27;20071;-64
2023/05/10 01:48:10;;;;;;;2.55;0.60;;;;;;;12.56;100.00;100320.25;5113045;27;20869;-65
2023/05/10 01:50:38;;;;;;;1.05;0.70;;;;;;;12.62;100.00;100324.72;5114830;27;20534;-65
2023/05/10 01:53:07;;;;;;;1.85;0.30;;;;;;;12.62;100.00;100324.72;5118561;27;20327;-65
2023/05/10 01:55:39;;;;;;;1.45;0.90;;;;;;;12.52;100.00;100322.53;5119186;27;20552;-64
2023/05/10 01:58:23;;;;;;;0.77;0.77;;;;;;;12.72;100.00;100322.47;5120143;27;20460;-65
2023/05/10 02:00:51;;;;;;;0.98;0.30;;;;;;;12.64;100.00;100322.69;5115676;27;20032;-65
2023/05/10 02:03:20;;;;;;;5.15;1.25;;;;;;;12.51;100.00;100320.88;5123474;27;20027;-65
2023/05/10 02:05:48;;;;;;;1.88;0.65;;;;;;;12.49;100.00;100324.75;5119840;27;20507;-65
2023/05/10 02:08:17;;;;;;;0.77;0.43;;;;;;;12.38;100.00;100326.22;5120943;27;20042;-66
2023/05/10 02:10:44;;;;;;;0.65;0.65;;;;;;;12.46;100.00;100326.00;5126368;27;20677;-65
2023/05/10 02:13:11;;;;;;;1.75;0.73;;;;;;;12.42;100.00;100320.28;5124560;27;20058;-65
2023/05/10 02:15:38;;;;;;;4.35;0.55;;;;;;;12.37;100.00;100322.75;5114515;27;20043;-65
2023/05/10 02:18:05;;;;;;;2.35;0.68;;;;;;;12.35;100.00;100324.78;5117093;27;20426;-65
2023/05/10 02:20:31;;;;;;;0.45;0.20;;;;;;;12.44;100.00;100328.03;5118769;27;20486;-65
2023/05/10 02:22:57;;;;;;;2.05;0.52;;;;;;;12.43;100.00;100326.41;5125943;27;20034;-65
2023/05/10 02:25:25;;;;;;;1.38;1.13;;;;;;;12.35;100.00;100323.97;5121167;27;20035;-65
2023/05/10 02:27:52;;;;;;;2.65;0.77;;;;;;;12.26;100.00;100333.16;5124238;27;20039;-65
2023/05/10 02:30:19;;;;;;;2.22;0.50;;;;;;;12.29;100.00;100333.59;5125238;27;20053;-66
2023/05/10 02:32:45;;;;;;;0.10;0.10;;;;;;;12.29;100.00;100328.28;5112373;27;20415;-66
2023/05/10 02:35:11;;;;;;;0.65;0.10;;;;;;;12.31;100.00;100333.38;5119300;27;20039;-65
2023/05/10 02:37:39;;;;;;;2.47;1.63;;;;;;;12.19;100.00;100335.84;5128636;27;20383;-65
2023/05/10 02:40:07;;;;;;;1.15;0.75;;;;;;;12.11;100.00;100339.53;5098821;28;20380;-65
2023/05/10 02:42:36;;;;;;;1.77;0.80;;;;;;;12.05;100.00;100336.84;5119962;27;20026;-66
2023/05/10 02:45:07;;;;;;;2.45;0.45;;;;;;;12.03;100.00;100339.75;5111962;27;20122;-66
2023/05/10 02:47:33;;;;;;;0.55;0.55;;;;;;;12.09;100.00;100338.09;5120578;27;20030;-66
2023/05/10 02:49:59;;;;;;;0.70;0.70;;;;;;;12.09;100.00;100346.88;5116050;27;20091;-65
2023/05/10 02:52:36;;;;;;;2.05;0.60;;;;;;;12.04;100.00;100348.53;5121514;27;20058;-65
2023/05/10 02:55:05;;;;;;;3.47;0.28;;;;;;;12.03;100.00;100341.56;5118866;27;20031;-65
2023/05/10 02:57:33;;;;;;;3.80;0.50;;;;;;;11.96;100.00;100346.88;5116376;27;21478;-65
2023/05/10 03:00:00;;;;;;;1.15;0.50;;;;;;;11.92;100.00;100353.59;5122997;27;20023;-66
2023/05/10 03:02:26;;;;;;;0.82;0.50;;;;;;;11.90;100.00;100355.63;5122002;27;20031;-65
2023/05/10 03:04:51;;;;;;;2.85;0.20;;;;;;;11.94;100.00;100348.91;5113448;27;20058;-65
2023/05/10 03:07:19;;;;;;;0.20;0.20;;;;;;;11.92;100.00;100351.75;5124018;27;20464;-65
2023/05/10 03:09:45;;;;;;;1.63;0.65;;;;;;;11.82;100.00;100351.31;5123633;27;20072;-64
2023/05/10 03:12:48;;;;;;;4.60;0.73;;;;;;;11.71;100.00;100355.38;5118380;27;20019;-64
2023/05/10 03:15:31;;;;;;;0.88;0.43;;;;;;;11.62;100.00;100355.78;5114584;27;20091;-65
2023/05/10 03:18:04;;;;;;;0.17;0.10;;;;;;;11.52;100.00;100356.97;5116284;27;20046;-65
2023/05/10 03:20:35;;;;;;;0.40;0.40;;;;;;;11.49;100.00;100364.53;5109510;27;20063;-65
2023/05/10 03:23:07;;;;;;;1.40;0.50;;;;;;;11.51;100.00;100365.13;5120613;27;20034;-65
2023/05/10 03:25:33;;;;;;;0.40;0.10;;;;;;;11.43;100.00;100373.28;5097858;27;20046;-65
2023/05/10 03:28:01;;;;;;;0.30;0.17;;;;;;;11.29;100.00;100369.78;5117286;27;20024;-64
2023/05/10 03:30:27;;;;;;;0.88;0.17;;;;;;;11.17;100.00;100376.66;5114658;27;20111;-65
2023/05/10 03:32:54;;;;;;;1.15;0.40;;;;;;;11.12;100.00;100375.41;5120017;27;20059;-65
2023/05/10 03:35:19;;;;;;;0.17;0.10;;;;;;;11.15;100.00;100376.84;5119028;27;20109;-65
2023/05/10 03:37:45;;;;;;;2.17;0.28;;;;;;;11.16;100.00;100377.69;5118457;27;20096;-65
2023/05/10 03:40:10;;;;;;;1.27;0.30;;;;;;;11.10;100.00;100377.44;5117625;27;20480;-65
2023/05/10 03:42:36;;;;;;;0.25;0.22;;;;;;;11.08;100.00;100383.97;5112142;27;20023;-64
2023/05/10 03:45:02;;;;;;;0.95;0.10;;;;;;;11.12;100.00;100382.53;5114552;27;20044;-65
2023/05/10 03:47:27;;;;;;;0.10;0.10;;;;;;;11.12;100.00;100386.00;5120927;27;20031;-64
2023/05/10 03:49:52;;;;;;;9.20;1.05;;;;;;;11.04;100.00;100388.84;5119983;27;20019;-64
2023/05/10 03:52:18;;;;;;;1.00;0.22;;;;;;;11.03;100.00;100387.22;5120360;27;20031;-65
2023/05/10 03:54:43;;;;;;;0.43;0.20;;;;;;;10.99;100.00;100385.94;5122117;27;20106;-65
2023/05/10 03:57:09;;;;;;;2.85;0.32;;;;;;;10.93;100.00;100402.66;5111778;27;20028;-65
2023/05/10 03:59:34;;;;;;;0.52;0.20;;;;;;;10.82;100.00;100398.72;5111571;27;20024;-64
2023/05/10 04:02:00;;;;;;;0.85;0.22;;;;;;;10.84;100.00;100393.19;5117321;27;20076;-65
2023/05/10 04:04:25;;;;;;;0.52;0.20;;;;;;;10.89;100.00;100396.09;5117280;27;20043;-65
2023/05/10 04:06:50;;;;;;;1.75;0.30;;;;;;;10.95;100.00;100399.81;5119568;27;20040;-65
2023/05/10 04:09:16;;;;;;;0.50;0.20;;;;;;;10.94;100.00;100404.28;5118755;27;20158;-67
2023/05/10 04:11:42;;;;;;;4.90;0.35;;;;;;;11.02;100.00;100400.66;5120567;27;20035;-64
2023/05/10 04:14:07;;;;;;;1.05;0.50;;;;;;;11.14;100.00;100407.88;5122226;27;20521;-65
2023/05/10 04:16:33;;;;;;;1.33;0.70;;;;;;;11.29;100.00;100410.41;5124476;27;20034;-65
2023/05/10 04:18:59;;;;;;;1.33;0.38;;;;;;;11.44;100.00;100406.78;5115722;27;20444;-65
2023/05/10 04:21:25;;;;;;;3.92;1.08;;;;;;;11.53;100.00;100411.72;5099320;27;20514;-64
2023/05/10 04:23:50;;;;;;;3.25;1.33;;;;;;;11.57;100.00;100415.63;5118844;27;20063;-63
2023/05/10 04:26:15;;;;;;;1.52;1.23;;;;;;;11.58;100.00;100422.56;5113372;27;20506;-63
2023/05/10 04:28:41;;;;;;;4.13;1.75;;;;;;;11.78;100.00;100413.84;5112263;27;20059;-63
2023/05/10 04:31:08;;;;;;;3.85;1.73;;;;;;;12.00;100.00;100417.19;5113762;27;20085;-65
2023/05/10 04:33:34;;;;;;;5.28;1.65;;;;;;;12.05;100.00;100416.59;5115578;27;20038;-65
2023/05/10 04:36:00;;;;;;;2.55;1.70;;;;;;;12.04;100.00;100409.63;5122174;27;20023;-64
2023/05/10 04:38:26;;;;;;;11.85;2.20;;;;;;;12.13;100.00;100408.41;5117394;27;20531;-64
2023/05/10 04:40:52;;;;;;;3.35;2.05;;;;;;;12.08;100.00;100409.03;5128499;27;20921;-64
2023/05/10 04:43:17;;;;;;;4.75;2.08;;;;;;;12.01;100.00;100418.84;5116636;27;20023;-65
2023/05/10 04:45:42;;;;;;;5.20;1.98;;;;;;;12.05;100.00;100414.75;5115010;27;20058;-63
2023/05/10 04:48:08;;;;;;;3.70;2.00;;;;;;;12.10;100.00;100411.47;5100851;28;20083;-64
2023/05/10 04:50:33;;;;;;;4.40;1.30;;;;;;;12.12;100.00;100410.25;5118134;27;20059;-64
2023/05/10 04:52:58;;;;;;;3.15;2.45;;;;;;;12.02;100.00;100424.97;5105776;27;20031;-64
2023/05/10 04:55:24;;;;;;;3.03;1.05;;;;;;;11.91;100.00;100429.03;5120436;27;20580;-64
2023/05/10 04:57:49;;;;;;;3.40;2.00;;;;;;;11.93;100.00;100425.16;5118849;27;20030;-64
2023/05/10 05:00:15;;;;;;;5.68;1.48;;;;;;;11.90;100.00;100432.69;5118051;27;20027;-64
2023/05/10 05:02:45;;;;;;;5.65;1.85;;;;;;;11.88;100.00;100435.56;5114234;27;20048;-64
2023/05/10 05:05:11;;;;;;;5.00;2.58;;;;;;;11.81;100.00;100434.69;5121435;27;20031;-64
2023/05/10 05:07:37;;;;;;;4.30;1.00;;;;;;;11.75;100.00;100436.31;5107906;27;20616;-64
2023/05/10 05:10:03;;;;;;;4.50;1.20;;;;;;;11.73;100.00;100443.66;5118330;27;20208;-64
2023/05/10 05:12:28;;;;;;;6.43;1.38;;;;;;;11.76;100.00;100437.94;5122285;27;20744;-64
2023/05/10 05:14:53;;;;;;;5.57;0.80;;;;;;;11.83;100.00;100447.78;5117278;27;20024;-64
2023/05/10 05:17:18;;;;;;;1.80;0.70;;;;;;;11.74;100.00;100445.28;5119428;27;20400;-64
2023/05/10 05:19:44;;;;;;;1.35;0.55;;;;;;;11.72;100.00;100449.16;5115187;27;21064;-63
2023/05/10 05:22:09;;;;;;;2.33;0.43;;;;;;;11.79;100.00;100456.13;5124178;27;20380;-63
2023/05/10 05:24:37;;;;;;;5.65;1.77;;;;;;;11.92;100.00;100455.38;5117216;27;20065;-64
2023/05/10 05:27:02;;;;;;;3.83;0.77;;;;;;;11.93;100.00;100458.88;5117374;27;20483;-65
2023/05/10 05:29:28;;;;;;;9.55;1.30;;;;;;;11.88;100.00;100453.34;5115625;27;20035;-65
2023/05/10 05:31:53;;;;;;;5.03;0.98;;;;;;;11.95;100.00;100460.31;5116536;27;20069;-64
2023/05/10 05:34:20;;;;;;;2.85;0.73;;;;;;;12.11;100.00;100461.78;5118956;27;20026;-62
2023/05/10 05:36:45;;;;;;;8.82;2.97;;;;;;;12.15;100.00;100462.19;5117599;27;20027;-65
2023/05/10 05:39:11;;;;;;;2.33;1.10;;;;;;;12.16;100.00;100464.66;5109442;27;20035;-64
2023/05/10 05:41:36;;;;;;;2.83;1.02;;;;;;;12.20;100.00;100470.38;5113311;27;20015;-64
2023/05/10 05:44:01;;;;;;;3.17;2.08;;;;;;;12.21;100.00;100467.53;5114123;27;20082;-63
2023/05/10 05:46:26;;;;;;;5.78;1.95;;;;;;;12.25;100.00;100472.44;5111370;27;20395;-64
2023/05/10 05:48:52;;;;;;;4.45;1.00;;;;;;;12.27;100.00;100470.41;5090087;27;20225;-64
2023/05/10 05:51:17;;;;;;;2.05;1.77;;;;;;;12.31;100.00;100476.94;5110436;27;20484;-64
2023/05/10 05:53:43;;;;;;;1.40;1.25;;;;;;;12.26;100.00;100472.22;5115727;27;20475;-64
2023/05/10 05:56:09;;;;;;;1.00;0.88;;;;;;;12.25;100.00;100477.75;5113888;27;20034;-65
2023/05/10 05:58:34;;;;;;;3.55;1.00;;;;;;;12.21;100.00;100477.34;5116666;27;20027;-64
2023/05/10 06:01:00;;;;;;;3.10;0.60;;;;;;;12.22;100.00;100473.66;5113972;27;20031;-64
2023/05/10 06:03:25;;;;;;;1.27;0.55;;;;;;;12.22;100.00;100478.97;5116840;27;20034;-64
2023/05/10 06:05:50;;;;;;;1.90;0.60;;;;;;;12.23;100.00;100484.06;5114685;27;20402;-65
2023/05/10 06:08:15;;;;;;;5.53;1.83;;;;;;;12.21;100.00;100483.47;5116352;27;20034;-64
2023/05/10 06:10:41;;;;;;;2.97;1.42;;;;;;;12.36;100.00;100469.16;5121734;27;20110;-64
2023/05/10 06:13:06;;;;;;;1.85;1.30;;;;;;;12.49;100.00;100473.69;5112733;27;20026;-64
2023/05/10 06:15:32;;;;;;;5.88;1.90;;;;;;;12.73;100.00;100481.06;5122073;27;20023;-65
2023/05/10 06:17:57;;;;;;;5.22;1.10;;;;;;;12.77;100.00;100486.78;5112386;27;20639;-65
2023/05/10 06:20:23;;;;;;;3.35;1.00;;;;;;;12.81;100.00;100478.19;5120468;27;20067;-65
2023/05/10 06:22:48;;;;;;;2.75;1.25;;;;;;;12.86;100.00;100489.03;5118413;27;20027;-64
2023/05/10 06:25:14;;;;;;;8.57;1.40;;;;;;;12.90;100.00;100496.59;5122761;27;20039;-63
2023/05/10 06:27:39;;;;;;;3.55;1.15;;;;;;;12.95;100.00;100500.28;5124848;27;20031;-63
2023/05/10 06:30:06;;;;;;;8.38;1.50;;;;;;;13.05;100.00;100499.88;5121979;27;20023;-64
2023/05/10 06:32:31;;;;;;;2.15;1.08;;;;;;;13.09;100.00;100501.09;5116502;27;20042;-64
2023/05/10 06:34:56;;;;;;;2.47;1.55;;;;;;;13.16;100.00;100498.41;5117579;27;20027;-64
2023/05/10 06:37:22;;;;;;;2.45;1.38;;;;;;;13.28;100.00;100494.94;5116150;27;20368;-64
2023/05/10 06:39:47;;;;;;;3.13;1.48;;;;;;;13.40;100.00;100499.63;5117610;27;20412;-65
2023/05/10 06:42:12;;;;;;;2.70;1.17;;;;;;;13.49;100.00;100501.03;5119162;27;20027;-65
2023/05/10 06:44:37;;;;;;;6.40;1.52;;;;;;;13.55;100.00;100510.84;5102927;27;20464;-64
2023/05/10 06:47:03;;;;;;;2.38;1.80;;;;;;;13.62;100.00;100516.97;5117323;27;20039;-62
2023/05/10 06:49:28;;;;;;;3.90;1.90;;;;;;;13.52;100.00;100508.59;5118156;27;20063;-64
2023/05/10 06:51:55;;;;;;;4.85;2.08;;;;;;;13.56;100.00;100509.03;5117495;27;20027;-65
2023/05/10 06:54:20;;;;;;;4.93;2.45;;;;;;;13.59;100.00;100506.75;5116197;27;20106;-65
2023/05/10 06:56:46;;;;;;;4.55;2.45;;;;;;;13.81;100.00;100509.13;5117700;27;20551;-66
2023/05/10 06:59:13;;;;;;;3.83;1.67;;;;;;;13.94;100.00;100503.75;5117507;27;20030;-65
2023/05/10 07:01:38;;;;;;;4.30;2.13;;;;;;;14.05;100.00;100512.94;5115265;27;20031;-66
2023/05/10 07:04:03;;;;;;;5.20;2.63;;;;;;;14.15;100.00;100506.09;5111663;27;20507;-66
2023/05/10 07:06:29;;;;;;;8.07;2.55;;;;;;;14.29;100.00;100509.50;5117204;27;20118;-66
2023/05/10 07:08:55;;;;;;;6.13;2.63;;;;;;;14.33;100.00;100509.91;5119617;27;20019;-64
2023/05/10 07:11:20;;;;;;;5.55;2.63;;;;;;;14.38;100.00;100518.06;5118536;27;20095;-64
2023/05/10 07:13:46;;;;;;;6.00;1.92;;;;;;;14.51;100.00;100512.66;5114438;27;20024;-65
2023/05/10 07:16:11;;;;;;;4.65;2.22;;;;;;;14.61;100.00;100515.69;5121393;27;20034;-65
2023/05/10 07:18:37;;;;;;;2.58;2.25;;;;;;;14.54;100.00;100519.44;5113060;27;20035;-65
2023/05/10 07:21:02;;;;;;;5.88;3.00;;;;;;;14.48;100.00;100512.25;5119399;27;20451;-65
2023/05/10 07:23:28;;;;;;;4.63;2.17;;;;;;;14.39;100.00;100517.03;5110514;27;20084;-66
2023/05/10 07:25:53;;;;;;;7.25;2.83;;;;;;;14.38;100.00;100521.56;5112764;27;20570;-66
2023/05/10 07:28:19;;;;;;;6.03;2.88;;;;;;;14.43;100.00;100520.91;5115411;27;20068;-62
2023/05/10 07:30:45;;;;;;;4.63;1.77;;;;;;;14.68;100.00;100514.81;5120655;27;20436;-65
2023/05/10 07:33:14;;;;;;;5.93;2.47;;;;;;;15.05;100.00;100518.41;5118062;27;20023;-66
2023/05/10 07:35:39;;;;;;;7.30;2.70;;;;;;;15.29;100.00;100515.94;5113047;27;20117;-65
2023/05/10 07:38:05;;;;;;;7.47;3.63;;;;;;;15.12;100.00;100519.13;5120857;27;20468;-65
2023/05/10 07:40:30;;;;;;;9.43;3.65;;;;;;;15.23;100.00;100515.75;5119083;27;20034;-65
2023/05/10 07:42:56;;;;;;;13.50;4.22;;;;;;;15.31;100.00;100528.03;5132625;27;20034;-65
2023/05/10 07:45:22;;;;;;;13.65;3.38;;;;;;;15.28;100.00;100520.41;5119764;27;20453;-65
2023/05/10 07:47:47;;;;;;;11.10;4.55;;;;;;;15.35;100.00;100520.38;5103762;27;20027;-65
2023/05/10 07:50:13;;;;;;;10.88;3.50;;;;;;;15.49;100.00;100517.34;5117268;27;20314;-66
2023/05/10 07:52:38;;;;;;;6.95;4.15;;;;;;;15.59;100.00;100521.34;5117899;27;20412;-65
2023/05/10 07:55:04;;;;;;;11.15;4.18;;;;;;;15.67;100.00;100521.06;5089523;27;20035;-65
2023/05/10 07:57:30;;;;;;;5.13;3.00;;;;;;;15.78;100.00;100519.53;5092532;27;20035;-66
2023/05/10 07:59:55;;;;;;;6.32;4.00;;;;;;;15.82;100.00;100521.50;5095760;27;20041;-64
2023/05/10 08:02:21;;;;;;;10.25;4.60;;;;;;;15.72;100.00;100515.88;5104569;27;20395;-63
2023/05/10 08:04:46;;;;;;;10.32;5.63;;;;;;;15.62;100.00;100521.72;5106921;27;20028;-68
2023/05/10 08:07:11;;;;;;;8.38;4.78;;;;;;;15.51;100.00;100527.78;5104948;27;20072;-67
2023/05/10 08:09:37;;;;;;;10.00;4.80;;;;;;;15.49;100.00;100525.34;5112353;27;20023;-67
2023/05/10 08:12:02;;;;;;;7.97;4.70;;;;;;;15.78;100.00;100531.03;5117755;27;20027;-64
2023/05/10 08:14:29;;;;;;;8.82;4.93;;;;;;;15.97;100.00;100522.97;5115411;27;20031;-67
2023/05/10 08:16:54;;;;;;;10.02;4.07;;;;;;;15.96;100.00;100521.34;5114212;27;20428;-64
2023/05/10 08:19:21;;;;;;;14.63;3.60;;;;;;;15.95;100.00;100525.06;5120674;27;20080;-67
2023/05/10 08:21:46;;;;;;;4.88;3.67;;;;;;;16.35;100.00;100525.34;5114340;27;20375;-66
2023/05/10 08:24:11;;;;;;;10.05;5.00;;;;;;;16.66;100.00;100521.56;5120566;27;20028;-66
2023/05/10 08:26:37;;;;;;;5.72;3.53;;;;;;;16.76;100.00;100527.19;5115680;27;20035;-65
2023/05/10 08:29:02;;;;;;;6.20;4.20;;;;;;;16.56;100.00;100527.50;5116242;27;20427;-65
2023/05/10 08:31:28;;;;;;;4.93;3.35;;;;;;;16.50;100.00;100528.41;5119383;27;20495;-64
2023/05/10 08:33:53;;;;;;;9.30;4.18;;;;;;;16.81;100.00;100533.75;5130631;27;20023;-62
2023/05/10 08:36:21;;;;;;;5.90;3.25;;;;;;;17.10;100.00;100527.47;5114171;27;20050;-65
2023/05/10 08:38:47;;;;;;;5.40;4.35;;;;;;;17.10;100.00;100532.81;5125738;27;20023;-66
2023/05/10 08:41:13;;;;;;;6.28;3.25;;;;;;;17.64;100.00;100536.16;5114730;27;20031;-66
2023/05/10 08:43:38;;;;;;;4.43;3.72;;;;;;;17.72;100.00;100526.13;5113361;27;20023;-64
2023/05/10 08:46:05;;;;;;;7.28;4.05;;;;;;;17.87;100.00;100531.84;5115733;27;20047;-64
2023/05/10 08:48:33;;;;;;;5.50;3.03;;;;;;;18.21;100.00;100530.06;5099650;28;20031;-59
2023/05/10 08:51:01;;;;;;;8.50;3.40;;;;;;;18.50;100.00;100528.16;5110963;27;20023;-61
2023/05/10 08:53:28;;;;;;;6.63;2.47;;;;;;;17.89;100.00;100521.69;5118219;27;20100;-55
2023/05/10 08:55:54;;;;;;;6.10;3.17;;;;;;;17.69;100.00;100523.94;5118053;27;20530;-62
2023/05/10 08:58:20;;;;;;;3.53;1.73;;;;;;;17.77;100.00;100523.53;5117729;27;20523;-56
2023/05/10 09:00:46;;;;;;;4.80;2.53;;;;;;;17.85;100.00;100512.47;5105354;27;20030;-56
2023/05/10 09:03:12;;;;;;;4.63;2.45;;;;;;;18.09;100.00;100519.38;5115156;27;20023;-53
2023/05/10 09:05:38;;;;;;;5.78;3.10;;;;;;;17.99;100.00;100519.19;5106392;27;20399;-54
2023/05/10 09:08:04;;;;;;;3.38;2.38;;;;;;;18.31;100.00;100518.72;5087378;27;20039;-63
2023/05/10 09:10:30;;;;;;;4.65;2.75;;;;;;;18.38;100.00;100511.31;5113258;27;20015;-54
2023/05/10 09:12:57;;;;;;;7.82;2.22;;;;;;;18.57;100.00;100516.47;5088025;27;20042;-56
2023/05/10 09:15:22;;;;;;;3.30;1.90;;;;;;;18.64;100.00;100514.41;5110104;27;20032;-51
2023/05/10 09:17:49;;;;;;;6.93;3.78;;;;;;;18.51;100.00;100518.25;5113791;27;20081;-49
2023/05/10 09:20:15;;;;;;;8.25;1.83;;;;;;;18.45;100.00;100519.22;5112222;27;20460;-50
2023/05/10 09:22:40;;;;;;;7.10;3.08;;;;;;;18.65;100.00;100518.75;5119494;27;20050;-56
2023/05/10 09:25:10;;;;;;;5.32;1.80;;;;;;;18.86;100.00;100517.22;5115404;27;20436;-57
2023/05/10 09:27:37;;;;;;;3.72;1.67;;;;;;;19.31;100.00;100511.72;5106103;27;20035;-56
2023/05/10 09:30:03;;;;;;;6.95;1.88;;;;;;;19.50;100.00;100509.53;5114280;27;20063;-55
2023/05/10 09:32:42;;;;;;;2.55;1.75;;;;;;;19.80;100.00;100511.00;5104315;27;20028;-56
2023/05/10 09:35:08;;;;;;;6.05;2.28;;;;;;;19.78;100.00;100518.53;5104098;27;20050;-53
2023/05/10 09:37:34;;;;;;;4.70;2.10;;;;;;;19.62;100.00;100514.81;5107352;27;20039;-57
2023/05/10 09:39:59;;;;;;;5.22;1.25;;;;;;;19.70;100.00;100524.34;5108546;27;20395;-57
2023/05/10 09:42:25;;;;;;;4.88;1.35;;;;;;;19.78;100.00;100513.16;5107360;27;20101;-55
2023/05/10 09:44:50;;;;;;;5.05;1.83;;;;;;;19.38;100.00;100520.41;5117006;27;20078;-50
2023/05/10 09:47:19;;;;;;;2.67;1.40;;;;;;;19.77;100.00;100515.03;5113937;27;20028;-55
2023/05/10 09:49:49;;;;;;;2.65;0.65;;;;;;;19.73;100.00;100513.88;5120393;27;20068;-55
2023/05/10 09:52:14;;;;;;;14.07;3.53;;;;;;;20.05;100.00;100513.16;5122673;27;20376;-53
2023/05/10 09:54:52;;;;;;;8.77;1.27;;;;;;;20.53;100.00;100514.19;5120115;27;21078;-56
2023/05/10 09:57:22;;;;;;;2.38;1.27;;;;;;;20.47;100.00;100520.56;5115124;27;20036;-55
2023/05/10 09:59:48;;;;;;;9.65;2.33;;;;;;;20.22;100.00;100527.34;5093373;27;20027;-52
2023/05/10 10:02:13;;;;;;;2.65;1.48;;;;;;;20.43;100.00;100516.78;5115072;27;20036;-60
2023/05/10 10:04:40;;;;;;;4.88;1.17;;;;;;;20.42;100.00;100509.75;5119991;27;20507;-57
2023/05/10 10:07:06;;;;;;;9.40;1.90;;;;;;;20.24;100.00;100513.66;5120464;27;20371;-51
2023/05/10 10:09:33;;;;;;;3.63;1.20;;;;;;;20.31;100.00;100511.53;5133425;27;20027;-54
2023/05/10 10:12:00;;;;;;;5.13;0.68;;;;;;;20.32;100.00;100512.38;5115266;27;20141;-56
2023/05/10 10:14:26;;;;;;;6.80;1.10;;;;;;;20.41;100.00;100510.81;5136718;27;20561;-51
2023/05/10 10:16:52;;;;;;;2.03;1.92;;;;;;;20.33;100.00;100511.28;5133604;27;20035;-61
2023/05/10 10:19:21;;;;;;;12.07;1.73;;;;;;;19.82;100.00;100504.28;5124056;27;20022;-56
2023/05/10 10:21:50;;;;;;;4.25;0.77;;;;;;;19.36;100.00;100511.78;5112321;27;20467;-58
2023/05/10 10:24:15;;;;;;;2.50;0.63;;;;;;;19.40;100.00;100520.16;5124552;27;20921;-55
2023/05/10 10:26:42;;;;;;;2.72;0.65;;;;;;;20.10;100.00;100509.72;5097175;27;20119;-52
2023/05/10 10:29:32;;;;;;;3.13;0.65;;;;;;;20.53;100.00;100507.97;5106003;27;20365;-55
2023/05/10 10:32:18;;;;;;;3.65;0.63;;;;;;;20.62;100.00;100509.97;5119547;27;20409;-60
2023/05/10 10:34:44;;;;;;;5.63;0.60;;;;;;;20.52;100.00;100503.66;5122062;27;20368;-57
2023/05/10 10:37:10;;;;;;;6.15;1.20;;;;;;;20.63;100.00;100508.91;5118619;27;20031;-56
2023/05/10 10:39:36;;;;;;;2.38;0.57;;;;;;;20.29;100.00;100502.09;5111209;27;20096;-57
2023/05/10 10:42:03;;;;;;;5.35;0.45;;;;;;;20.41;100.00;100508.94;5116409;27;20490;-57
2023/05/10 10:44:33;;;;;;;9.88;1.38;;;;;;;20.02;100.00;100513.69;5121708;27;20068;-63
2023/05/10 10:47:24;;;;;;;1.05;0.30;;;;;;;19.62;100.00;100509.44;5119248;27;20352;-58
2023/05/10 10:49:51;;;;;;;2.27;1.00;;;;;;;19.78;100.00;100499.69;5115590;27;20506;-67
2023/05/10 10:52:33;;;;;;;6.32;1.30;;;;;;;20.24;100.00;100505.56;5109846;27;20027;-64
2023/05/10 10:55:01;;;;;;;;;;;;;;;20.63;100.00;100508.91;5111412;27;20521;-57
2023/05/10 10:57:27;;;;;;;3.63;1.27;;;;;;;20.42;100.00;100507.06;5113113;27;19920;-57
2023/05/10 11:00:30;;;;;;;6.60;1.73;;;;;;;20.73;100.00;100515.44;5119440;27;20023;-59
2023/05/10 11:03:02;;;;;;;6.28;1.77;;;;;;;20.73;100.00;100512.72;5114060;27;20050;-54
2023/05/10 11:05:27;;;;;;;5.88;2.08;;;;;;;20.72;100.00;100516.50;5118140;27;20586;-58
2023/05/10 11:07:57;;;;;;;4.65;1.90;;;;;;;20.86;100.00;100509.63;5117991;27;20260;-59
2023/05/10 11:10:24;;;;;;;6.03;2.65;;;;;;;20.54;100.00;100505.03;5114239;27;20487;-58
2023/05/10 11:13:06;;;;;;;9.23;1.67;;;;;;;20.95;100.00;100499.97;5122411;27;20068;-64
2023/05/10 11:15:36;;;;;;;5.72;1.70;;;;;;;21.11;100.00;100492.78;5121560;27;20172;-61
2023/05/10 11:18:23;;;;;;;7.93;2.03;;;;;;;21.44;100.00;100497.03;5120223;27;20038;-59